Time;durP1;ratioP1;P1;durP2;ratioP2;P2;SDS_P1;SDS_P2;PMS_P1;PMS_P2;Temp;Humidity;BMP_temperature;BMP_pressure;BME280_temperature;BME280_humidity;BME280_pressure;Samples;Min_cycle;Max_cycle;Signal;HPM_P1;HPM_P2
2022/08/16 00:00:27;;;;;;;17.48;15.68;;;21.70;99.90;;;;;;4988966;28;20129;-89
2022/08/16 00:02:54;;;;;;;16.40;14.73;;;21.70;99.90;;;;;;4976300;28;20057;-88
2022/08/16 00:05:22;;;;;;;16.98;15.27;;;21.70;99.90;;;;;;4990650;28;20134;-88
2022/08/16 00:07:49;;;;;;;16.52;14.73;;;21.60;99.90;;;;;;4980069;28;20403;-89
2022/08/16 00:10:16;;;;;;;17.50;15.50;;;21.70;99.90;;;;;;4970331;28;20046;-89
2022/08/16 00:12:43;;;;;;;15.07;13.55;;;21.70;99.90;;;;;;4964617;28;20096;-89
2022/08/16 00:15:20;;;;;;;15.32;13.73;;;21.60;99.90;;;;;;4968357;28;20146;-89
2022/08/16 00:17:45;;;;;;;15.30;13.73;;;21.70;99.90;;;;;;4983319;28;20419;-89
2022/08/16 00:20:12;;;;;;;15.85;13.00;;;21.60;99.90;;;;;;4987567;28;20096;-90
2022/08/16 00:22:39;;;;;;;15.50;13.63;;;21.60;99.90;;;;;;4989270;28;20038;-89
2022/08/16 00:25:08;;;;;;;15.70;14.20;;;21.60;99.90;;;;;;4976350;28;20042;-88
2022/08/16 00:27:33;;;;;;;15.40;13.77;;;21.60;99.90;;;;;;4985694;28;20133;-88
2022/08/16 00:29:59;;;;;;;16.58;14.95;;;21.50;99.90;;;;;;4970103;28;20137;-88
2022/08/16 00:32:25;;;;;;;17.77;15.98;;;21.50;99.90;;;;;;4987343;28;20043;-88
2022/08/16 00:34:50;;;;;;;16.17;14.45;;;21.60;99.90;;;;;;4972331;28;20068;-89
2022/08/16 00:37:16;;;;;;;17.67;14.07;;;21.40;99.90;;;;;;4976975;28;20034;-88
2022/08/16 00:39:42;;;;;;;15.93;14.32;;;21.50;99.90;;;;;;4978695;28;20030;-88
2022/08/16 00:42:08;;;;;;;18.00;16.10;;;21.50;99.90;;;;;;4975551;28;20043;-88
2022/08/16 00:44:35;;;;;;;16.83;15.23;;;21.50;99.90;;;;;;4969349;28;20137;-88
2022/08/16 00:47:08;;;;;;;17.40;15.70;;;21.50;99.90;;;;;;4983013;28;20061;-89
2022/08/16 00:49:35;;;;;;;17.20;15.15;;;21.50;99.90;;;;;;4984493;28;20085;-88
2022/08/16 00:52:02;;;;;;;18.00;16.10;;;21.50;99.90;;;;;;4983542;28;20050;-88
2022/08/16 00:54:30;;;;;;;19.10;17.15;;;21.50;99.90;;;;;;4989526;28;20050;-88
2022/08/16 00:57:01;;;;;;;18.42;16.58;;;21.40;99.90;;;;;;4971355;28;20115;-88
2022/08/16 00:59:30;;;;;;;19.50;17.60;;;21.40;99.90;;;;;;4972818;28;20105;-88
2022/08/16 01:01:56;;;;;;;18.38;16.67;;;21.40;99.90;;;;;;4977653;28;20055;-88
2022/08/16 01:04:24;;;;;;;19.67;17.67;;;21.30;99.90;;;;;;4994005;28;20125;-89
2022/08/16 01:06:50;;;;;;;19.45;17.50;;;21.40;99.90;;;;;;4994174;28;20122;-90
2022/08/16 01:09:16;;;;;;;19.25;16.17;;;21.40;99.90;;;;;;4994981;28;20132;-88
2022/08/16 01:11:43;;;;;;;21.42;19.40;;;21.40;99.90;;;;;;4978536;28;20046;-88
2022/08/16 01:14:23;;;;;;;22.77;20.55;;;21.30;99.90;;;;;;4996444;28;20065;-88
2022/08/16 01:16:49;;;;;;;21.63;19.38;;;21.30;99.90;;;;;;4967759;28;20108;-88
2022/08/16 01:19:27;;;;;;;22.13;19.95;;;21.30;99.90;;;;;;4995812;28;20388;-89
2022/08/16 01:22:00;;;;;;;20.65;18.63;;;21.30;99.90;;;;;;4959831;28;20039;-89
2022/08/16 01:25:01;;;;;;;22.08;19.88;;;21.30;99.90;;;;;;4976314;28;20043;-88
2022/08/16 01:27:32;;;;;;;22.92;20.70;;;21.30;99.90;;;;;;4982952;28;20057;-89
2022/08/16 01:30:15;;;;;;;23.27;20.98;;;21.20;99.90;;;;;;4994061;28;20049;-89
2022/08/16 01:32:41;;;;;;;22.40;20.30;;;21.30;99.90;;;;;;4989707;28;20038;-89
2022/08/16 01:35:14;;;;;;;22.55;20.48;;;21.20;99.90;;;;;;4996127;28;20038;-88
2022/08/16 01:37:43;;;;;;;23.75;21.23;;;21.30;99.90;;;;;;4994865;28;20101;-90
2022/08/16 01:40:11;;;;;;;22.27;20.35;;;21.20;99.90;;;;;;4977867;28;20038;-89
2022/08/16 01:42:36;;;;;;;22.23;20.13;;;21.20;99.90;;;;;;4977764;28;20180;-89
2022/08/16 01:45:03;;;;;;;22.38;20.25;;;21.10;99.90;;;;;;4973104;28;20632;-90
2022/08/16 01:47:30;;;;;;;21.50;19.45;;;21.20;99.90;;;;;;4982976;28;20060;-88
2022/08/16 01:49:56;;;;;;;23.02;20.90;;;21.20;99.90;;;;;;4987325;28;20094;-88
2022/08/16 01:52:21;;;;;;;22.92;20.70;;;21.20;99.90;;;;;;4982734;28;20069;-88
2022/08/16 01:54:47;;;;;;;23.30;20.88;;;21.10;99.90;;;;;;4976622;28;20042;-88
2022/08/16 01:57:13;;;;;;;22.45;20.40;;;21.20;99.90;;;;;;4982464;28;20491;-88
2022/08/16 01:59:40;;;;;;;23.10;20.80;;;21.00;99.90;;;;;;4994500;28;20046;-89
2022/08/16 02:02:05;;;;;;;23.65;21.42;;;21.00;99.90;;;;;;4991845;28;20046;-89
2022/08/16 02:04:33;;;;;;;23.85;21.67;;;20.90;99.90;;;;;;4983698;28;20522;-89
2022/08/16 02:06:58;;;;;;;22.17;19.88;;;20.90;99.90;;;;;;4990063;28;20043;-89
2022/08/16 02:09:25;;;;;;;23.20;20.90;;;20.90;99.90;;;;;;4961825;28;20064;-88
2022/08/16 02:11:54;;;;;;;23.83;21.63;;;20.90;99.90;;;;;;4989087;28;20039;-89
2022/08/16 02:14:22;;;;;;;22.38;20.08;;;20.80;99.90;;;;;;4981032;28;20050;-89
2022/08/16 02:16:48;;;;;;;22.92;20.83;;;20.80;99.90;;;;;;4991468;28;20042;-88
2022/08/16 02:19:17;;;;;;;24.73;22.33;;;20.80;99.90;;;;;;4975708;28;20081;-89
2022/08/16 02:21:54;;;;;;;24.20;22.00;;;20.70;99.90;;;;;;4991997;28;20057;-89
2022/08/16 02:24:21;;;;;;;23.83;21.52;;;20.70;99.90;;;;;;4993365;28;20113;-89
2022/08/16 02:26:47;;;;;;;24.23;21.95;;;20.50;99.90;;;;;;4973223;28;20044;-88
2022/08/16 02:29:13;;;;;;;24.88;22.50;;;20.50;99.90;;;;;;4986055;28;20046;-90
2022/08/16 02:31:39;;;;;;;24.63;22.10;;;20.50;99.90;;;;;;4966334;28;20399;-89
2022/08/16 02:34:07;;;;;;;24.23;21.92;;;20.40;99.90;;;;;;4971528;28;20097;-89
2022/08/16 02:36:33;;;;;;;25.63;23.23;;;20.40;99.90;;;;;;4958400;28;20038;-90
2022/08/16 02:38:59;;;;;;;24.67;22.38;;;20.30;99.90;;;;;;4980409;28;20047;-90
2022/08/16 02:41:25;;;;;;;25.23;22.92;;;20.30;99.90;;;;;;4972754;28;20049;-90
2022/08/16 02:43:51;;;;;;;26.20;23.65;;;20.30;99.90;;;;;;4991923;28;20427;-90
2022/08/16 02:46:16;;;;;;;26.00;23.40;;;20.20;99.90;;;;;;4980999;28;20042;-89
2022/08/16 02:48:42;;;;;;;24.52;21.98;;;20.20;99.90;;;;;;4987987;28;20054;-89
2022/08/16 02:51:09;;;;;;;26.08;23.58;;;20.20;99.90;;;;;;4990802;28;20042;-89
2022/08/16 02:53:36;;;;;;;26.35;23.85;;;20.20;99.90;;;;;;4988126;28;20054;-89
2022/08/16 02:56:04;;;;;;;25.33;22.92;;;20.20;99.90;;;;;;4990603;28;20053;-88
2022/08/16 02:58:31;;;;;;;25.25;22.95;;;20.10;99.90;;;;;;4973841;28;20487;-88
2022/08/16 03:00:57;;;;;;;26.02;23.42;;;20.10;99.90;;;;;;4987906;28;20105;-88
2022/08/16 03:03:25;;;;;;;25.80;23.45;;;20.10;99.90;;;;;;4963100;28;20040;-88
2022/08/16 03:05:51;;;;;;;25.55;23.25;;;20.00;99.90;;;;;;4974082;28;20133;-88
2022/08/16 03:08:18;;;;;;;24.80;22.40;;;20.00;99.90;;;;;;4978470;28;20049;-89
2022/08/16 03:10:44;;;;;;;23.45;21.15;;;20.10;99.90;;;;;;4955745;28;20090;-88
2022/08/16 03:13:11;;;;;;;24.45;22.13;;;20.00;99.90;;;;;;4977693;28;20116;-88
2022/08/16 03:15:37;;;;;;;24.00;21.70;;;19.90;99.90;;;;;;4987658;28;20046;-88
2022/08/16 03:18:03;;;;;;;23.17;21.08;;;19.80;99.90;;;;;;4980372;28;20059;-88
2022/08/16 03:20:28;;;;;;;26.13;23.65;;;19.80;99.90;;;;;;4990851;28;20458;-88
2022/08/16 03:22:54;;;;;;;25.83;23.40;;;19.80;99.90;;;;;;4987546;28;20054;-89
2022/08/16 03:25:20;;;;;;;24.08;21.67;;;19.80;99.90;;;;;;4987711;28;20043;-89
2022/08/16 03:27:46;;;;;;;25.38;22.90;;;19.70;99.90;;;;;;4981556;28;20085;-88
2022/08/16 03:30:19;;;;;;;27.85;25.13;;;19.80;99.90;;;;;;4975812;28;20050;-88
2022/08/16 03:32:47;;;;;;;28.77;26.17;;;19.60;99.90;;;;;;4987336;28;20123;-88
2022/08/16 03:35:14;;;;;;;25.55;23.13;;;19.70;99.90;;;;;;4977453;28;20051;-88
2022/08/16 03:37:42;;;;;;;27.38;24.70;;;19.60;99.90;;;;;;4963180;28;20448;-88
2022/08/16 03:40:09;;;;;;;26.98;24.45;;;19.60;99.90;;;;;;4974561;28;20052;-88
2022/08/16 03:42:35;;;;;;;27.80;25.08;;;19.60;99.90;;;;;;4983252;28;20035;-88
2022/08/16 03:45:00;;;;;;;28.50;25.65;;;19.60;99.90;;;;;;4981261;28;20096;-89
2022/08/16 03:47:28;;;;;;;28.75;25.77;;;19.60;99.90;;;;;;4990778;28;20042;-89
2022/08/16 03:49:55;;;;;;;28.30;25.58;;;19.60;99.90;;;;;;4988289;28;20050;-90
2022/08/16 03:52:21;;;;;;;28.83;26.13;;;19.60;99.90;;;;;;4987933;28;20049;-89
2022/08/16 03:54:48;;;;;;;29.40;26.70;;;19.60;99.90;;;;;;4987523;28;20042;-89
2022/08/16 03:57:13;;;;;;;27.67;25.10;;;19.60;99.90;;;;;;4981742;28;20046;-88
2022/08/16 03:59:39;;;;;;;28.35;25.65;;;19.60;99.90;;;;;;4980838;28;20380;-89
2022/08/16 04:02:05;;;;;;;26.92;24.33;;;19.50;99.90;;;;;;4973679;28;20126;-89
2022/08/16 04:04:31;;;;;;;27.77;25.15;;;19.60;99.90;;;;;;4980959;28;20093;-89
2022/08/16 04:06:57;;;;;;;25.92;23.50;;;19.50;99.90;;;;;;4985521;28;20043;-89
2022/08/16 04:09:23;;;;;;;27.48;24.90;;;19.50;99.90;;;;;;4991710;28;20591;-89
2022/08/16 04:11:48;;;;;;;27.80;24.95;;;19.50;99.90;;;;;;4987055;28;20074;-90
2022/08/16 04:14:14;;;;;;;26.98;24.48;;;19.50;99.90;;;;;;4976049;28;20503;-90
2022/08/16 04:16:39;;;;;;;26.92;24.27;;;19.40;99.90;;;;;;4972264;28;20049;-88
2022/08/16 04:19:05;;;;;;;27.70;25.20;;;19.40;99.90;;;;;;4987429;28;20514;-89
2022/08/16 04:21:33;;;;;;;27.40;24.75;;;19.30;99.90;;;;;;4983366;28;20543;-89
2022/08/16 04:23:59;;;;;;;27.30;24.48;;;19.30;99.90;;;;;;4986461;28;20042;-90
2022/08/16 04:26:25;;;;;;;26.95;24.30;;;19.30;99.90;;;;;;4989828;28;20089;-89
2022/08/16 04:28:52;;;;;;;25.70;23.15;;;19.20;99.90;;;;;;4957438;28;20404;-89
2022/08/16 04:31:18;;;;;;;26.58;23.95;;;19.20;99.90;;;;;;4976291;28;20038;-89
2022/08/16 04:33:44;;;;;;;26.75;24.25;;;19.20;99.90;;;;;;4985711;28;20407;-89
2022/08/16 04:36:10;;;;;;;26.75;24.15;;;19.20;99.90;;;;;;4973004;28;20150;-89
2022/08/16 04:38:36;;;;;;;26.75;24.05;;;19.20;99.90;;;;;;4967054;28;20543;-89
2022/08/16 04:41:02;;;;;;;26.67;24.08;;;19.30;99.90;;;;;;4970181;28;20121;-89
2022/08/16 04:43:28;;;;;;;26.08;23.42;;;19.20;99.90;;;;;;4965036;28;20404;-89
2022/08/16 04:45:54;;;;;;;27.67;24.98;;;19.10;99.90;;;;;;4972993;28;20046;-90
2022/08/16 04:48:19;;;;;;;28.33;25.63;;;19.30;99.90;;;;;;4972372;28;20134;-88
2022/08/16 04:50:47;;;;;;;27.55;24.88;;;19.30;99.90;;;;;;4987107;28;20130;-88
2022/08/16 04:53:14;;;;;;;28.85;25.77;;;19.20;99.90;;;;;;4986383;28;20053;-88
2022/08/16 04:55:39;;;;;;;28.55;25.75;;;19.30;99.90;;;;;;4984415;28;20085;-89
2022/08/16 04:58:06;;;;;;;28.58;25.67;;;19.40;99.90;;;;;;4979844;28;20077;-88
2022/08/16 05:00:33;;;;;;;29.10;26.23;;;19.30;99.90;;;;;;4955343;28;20061;-88
2022/08/16 05:03:10;;;;;;;31.00;27.80;;;19.40;99.90;;;;;;4970456;28;20042;-88
2022/08/16 05:05:38;;;;;;;30.38;27.38;;;19.50;99.90;;;;;;4971180;28;20039;-89
2022/08/16 05:08:04;;;;;;;30.73;27.83;;;19.50;99.90;;;;;;4972417;28;20594;-88
2022/08/16 05:10:30;;;;;;;30.10;27.20;;;19.50;99.90;;;;;;4980800;28;20043;-87
2022/08/16 05:12:57;;;;;;;29.42;26.63;;;19.60;99.90;;;;;;4981301;28;20133;-88
2022/08/16 05:15:23;;;;;;;29.40;26.52;;;19.60;99.90;;;;;;4983624;28;20096;-87
2022/08/16 05:17:49;;;;;;;29.15;26.30;;;19.60;99.90;;;;;;4976425;28;20055;-87
2022/08/16 05:20:15;;;;;;;29.52;26.70;;;19.70;99.90;;;;;;4988807;28;20042;-87
2022/08/16 05:22:41;;;;;;;28.92;26.02;;;19.80;99.90;;;;;;4987296;28;20461;-86
2022/08/16 05:25:08;;;;;;;29.15;26.35;;;19.80;99.90;;;;;;4984546;28;20046;-87
2022/08/16 05:27:34;;;;;;;28.45;25.52;;;19.80;99.90;;;;;;4980497;28;20043;-88
2022/08/16 05:29:59;;;;;;;27.27;24.52;;;19.90;99.90;;;;;;4969617;28;20065;-87
2022/08/16 05:32:25;;;;;;;28.27;25.58;;;19.90;99.90;;;;;;4971791;28;20408;-88
2022/08/16 05:34:51;;;;;;;26.45;23.98;;;20.00;99.90;;;;;;4968251;28;20391;-87
2022/08/16 05:37:17;;;;;;;26.35;23.75;;;20.10;99.90;;;;;;4988241;28;20114;-87
2022/08/16 05:39:43;;;;;;;27.45;24.75;;;20.10;99.90;;;;;;4983425;28;20169;-86
2022/08/16 05:42:09;;;;;;;27.65;25.00;;;20.20;99.90;;;;;;4983442;28;20178;-87
2022/08/16 05:44:34;;;;;;;26.08;23.58;;;20.30;99.90;;;;;;4988126;28;20065;-86
2022/08/16 05:47:01;;;;;;;26.85;24.35;;;20.40;99.90;;;;;;4987819;28;20053;-87
2022/08/16 05:49:29;;;;;;;27.00;24.30;;;20.50;99.90;;;;;;4982150;28;20206;-87
2022/08/16 05:51:55;;;;;;;25.95;23.35;;;20.60;99.90;;;;;;4974011;28;20043;-87
2022/08/16 05:54:22;;;;;;;26.80;24.02;;;20.80;99.90;;;;;;4978279;28;20488;-88
2022/08/16 05:56:48;;;;;;;25.92;23.33;;;20.90;99.90;;;;;;4980004;28;20399;-87
2022/08/16 05:59:16;;;;;;;25.27;22.77;;;21.10;99.90;;;;;;4993004;28;20042;-87
2022/08/16 06:01:49;;;;;;;25.95;23.33;;;21.00;99.90;;;;;;4971510;28;20058;-88
2022/08/16 06:04:16;;;;;;;24.35;21.85;;;21.20;99.90;;;;;;4993565;28;20054;-88
2022/08/16 06:06:43;;;;;;;24.45;21.98;;;21.20;99.90;;;;;;4991709;28;20058;-88
2022/08/16 06:09:10;;;;;;;22.75;20.65;;;21.20;99.90;;;;;;4988999;28;20050;-85
2022/08/16 06:11:36;;;;;;;24.23;21.83;;;21.30;99.90;;;;;;4982931;28;20046;-88
2022/08/16 06:14:03;;;;;;;23.65;21.10;;;21.20;99.90;;;;;;4982506;28;20082;-89
2022/08/16 06:16:29;;;;;;;23.60;21.30;;;21.20;99.90;;;;;;4972977;28;20097;-88
2022/08/16 06:18:55;;;;;;;24.95;22.27;;;21.20;99.90;;;;;;4982504;28;20055;-88
2022/08/16 06:21:21;;;;;;;24.45;22.02;;;21.20;99.90;;;;;;4985136;28;20034;-88
2022/08/16 06:23:46;;;;;;;24.20;21.80;;;21.20;99.90;;;;;;4987534;28;20042;-87
2022/08/16 06:26:12;;;;;;;24.27;21.83;;;21.10;99.90;;;;;;4972515;28;20383;-87
2022/08/16 06:28:38;;;;;;;23.80;21.50;;;21.20;99.90;;;;;;4996401;28;20491;-88
2022/08/16 06:31:05;;;;;;;24.17;21.80;;;21.10;99.90;;;;;;4992052;28;20084;-86
2022/08/16 06:33:31;;;;;;;23.90;21.60;;;21.00;99.90;;;;;;4924392;28;20042;-88
2022/08/16 06:35:57;;;;;;;25.15;22.55;;;21.10;99.90;;;;;;4940178;28;20057;-89
2022/08/16 06:38:23;;;;;;;23.83;21.27;;;21.00;99.90;;;;;;4923872;28;20053;-91
2022/08/16 06:40:50;;;;;;;24.45;21.98;;;21.00;99.90;;;;;;4950067;28;20466;-90
2022/08/16 06:43:15;;;;;;;24.00;21.63;;;21.00;99.90;;;;;;4942130;28;20807;-91
2022/08/16 06:45:42;;;;;;;25.58;23.08;;;20.90;99.90;;;;;;4964572;28;20163;-91
2022/08/16 06:48:09;;;;;;;24.83;22.42;;;21.00;99.90;;;;;;4979860;28;20042;-91
2022/08/16 06:50:35;;;;;;;24.33;21.85;;;21.10;99.90;;;;;;4988303;28;20053;-92
2022/08/16 06:53:01;;;;;;;23.33;21.02;;;21.10;99.90;;;;;;4981846;28;20046;-92
2022/08/16 06:55:30;;;;;;;23.30;20.88;;;21.20;99.90;;;;;;4964760;28;20365;-91
2022/08/16 06:57:56;;;;;;;23.42;21.13;;;21.40;99.90;;;;;;4961251;28;20038;-89
2022/08/16 07:00:23;;;;;;;23.83;21.30;;;21.50;99.90;;;;;;4972789;28;20054;-89
2022/08/16 07:02:49;;;;;;;23.98;21.58;;;21.50;99.90;;;;;;4989739;28;20046;-90
2022/08/16 07:05:16;;;;;;;23.95;21.45;;;21.60;99.90;;;;;;4992046;28;20042;-89
2022/08/16 07:07:44;;;;;;;23.30;20.98;;;21.70;99.90;;;;;;4976908;28;20441;-90
2022/08/16 07:10:10;;;;;;;23.58;21.17;;;21.80;99.90;;;;;;4984624;28;20528;-90
2022/08/16 07:12:36;;;;;;;23.00;20.77;;;22.00;99.90;;;;;;4982345;28;20149;-90
2022/08/16 07:15:04;;;;;;;25.10;22.63;;;22.00;99.90;;;;;;4991093;28;20081;-90
2022/08/16 07:17:31;;;;;;;24.02;21.73;;;22.00;99.90;;;;;;4975236;28;20136;-91
2022/08/16 07:19:57;;;;;;;24.80;22.30;;;22.10;99.90;;;;;;4973482;28;20042;-90
2022/08/16 07:22:24;;;;;;;24.67;22.17;;;22.20;99.90;;;;;;4991460;28;20196;-91
2022/08/16 07:24:50;;;;;;;24.80;22.35;;;22.20;99.90;;;;;;4977214;28;20177;-91
2022/08/16 07:27:15;;;;;;;25.17;22.67;;;22.30;99.90;;;;;;4989351;28;20516;-91
2022/08/16 07:29:41;;;;;;;24.70;22.23;;;22.30;99.90;;;;;;4990426;28;20504;-90
2022/08/16 07:32:07;;;;;;;25.38;22.85;;;22.40;99.90;;;;;;4984448;28;20117;-87
2022/08/16 07:34:33;;;;;;;24.73;22.23;;;22.50;99.90;;;;;;4971312;28;20043;-86
2022/08/16 07:37:03;;;;;;;25.50;23.05;;;22.50;99.90;;;;;;4983454;28;20037;-88
2022/08/16 07:39:29;;;;;;;26.03;23.57;;;22.70;99.90;;;;;;4981525;28;20431;-88
2022/08/16 07:41:54;;;;;;;26.58;23.98;;;22.60;99.90;;;;;;4985839;28;20052;-90
2022/08/16 07:44:20;;;;;;;26.10;23.45;;;22.70;99.90;;;;;;4985190;28;20121;-88
2022/08/16 07:46:46;;;;;;;26.52;23.88;;;22.80;99.90;;;;;;4973362;28;20042;-89
2022/08/16 07:49:12;;;;;;;24.95;22.55;;;22.80;99.90;;;;;;4984622;28;20116;-87
2022/08/16 07:51:37;;;;;;;27.23;24.58;;;22.70;99.90;;;;;;4982602;28;20081;-88
2022/08/16 07:54:05;;;;;;;25.42;23.02;;;22.90;99.90;;;;;;4984071;28;20069;-87
2022/08/16 07:56:31;;;;;;;26.55;23.85;;;23.00;99.90;;;;;;4988348;28;20051;-87
2022/08/16 07:58:57;;;;;;;24.58;22.27;;;23.10;99.90;;;;;;4986178;28;20046;-88
2022/08/16 08:01:23;;;;;;;25.25;22.70;;;23.10;99.90;;;;;;4986777;28;20057;-89
2022/08/16 08:03:51;;;;;;;24.45;21.95;;;23.20;99.90;;;;;;4987765;28;20517;-87
2022/08/16 08:06:18;;;;;;;24.55;22.15;;;23.20;99.90;;;;;;4987277;28;20054;-87
2022/08/16 08:08:44;;;;;;;23.75;21.50;;;23.30;99.90;;;;;;4991004;28;20109;-87
2022/08/16 08:11:09;;;;;;;22.75;20.33;;;23.40;99.90;;;;;;4988899;28;20050;-87
2022/08/16 08:13:35;;;;;;;22.55;20.45;;;23.60;99.90;;;;;;4987287;28;20038;-86
2022/08/16 08:16:01;;;;;;;21.98;19.85;;;23.60;99.90;;;;;;4986057;28;20042;-87
2022/08/16 08:18:28;;;;;;;22.75;20.33;;;23.60;99.90;;;;;;4982390;28;20065;-87
2022/08/16 08:20:53;;;;;;;22.83;20.55;;;23.60;99.90;;;;;;4984558;28;20069;-87
2022/08/16 08:23:19;;;;;;;22.33;20.08;;;23.70;99.90;;;;;;4985966;28;20526;-86
2022/08/16 08:25:45;;;;;;;23.33;20.83;;;23.70;99.90;;;;;;4986985;28;20376;-87
2022/08/16 08:28:12;;;;;;;23.67;21.27;;;23.80;99.90;;;;;;4971429;28;20062;-88
2022/08/16 08:30:38;;;;;;;23.75;21.45;;;23.80;99.90;;;;;;4986444;28;20037;-86
2022/08/16 08:33:03;;;;;;;22.90;20.67;;;23.90;99.90;;;;;;4985212;28;20054;-88
2022/08/16 08:35:31;;;;;;;21.85;19.75;;;23.90;99.90;;;;;;4987459;28;20069;-88
2022/08/16 08:37:57;;;;;;;23.27;21.00;;;23.90;99.90;;;;;;4985356;28;20046;-87
2022/08/16 08:40:24;;;;;;;22.95;20.73;;;24.00;99.90;;;;;;4989561;28;20184;-89
2022/08/16 08:42:50;;;;;;;22.80;20.50;;;24.00;99.90;;;;;;4987606;28;20105;-88
2022/08/16 08:45:17;;;;;;;23.55;21.15;;;24.20;99.90;;;;;;4987742;28;20050;-86
2022/08/16 08:47:45;;;;;;;23.20;20.92;;;24.10;99.90;;;;;;4987012;28;20046;-87
2022/08/16 08:50:13;;;;;;;20.98;18.88;;;24.20;99.90;;;;;;4987674;28;20077;-89
2022/08/16 08:52:38;;;;;;;22.27;20.00;;;24.20;99.90;;;;;;4988933;28;20135;-89
2022/08/16 08:55:07;;;;;;;21.67;19.30;;;24.30;99.90;;;;;;4971798;28;20125;-88
2022/08/16 08:57:33;;;;;;;22.65;20.40;;;24.30;99.90;;;;;;4987844;28;20109;-88
2022/08/16 09:00:00;;;;;;;23.08;20.67;;;24.40;99.90;;;;;;4985212;28;20069;-89
2022/08/16 09:02:25;;;;;;;21.05;19.05;;;24.40;99.90;;;;;;4987170;28;20149;-88
2022/08/16 09:04:51;;;;;;;21.38;19.25;;;24.40;99.90;;;;;;4986462;28;20125;-90
2022/08/16 09:07:17;;;;;;;23.42;20.50;;;24.50;99.90;;;;;;4983038;28;20050;-90
2022/08/16 09:09:42;;;;;;;21.83;19.65;;;24.50;99.90;;;;;;4985417;28;20042;-91
2022/08/16 09:12:08;;;;;;;21.58;19.30;;;24.60;99.90;;;;;;4969686;28;20073;-86
2022/08/16 09:14:38;;;;;;;21.02;18.92;;;24.70;99.90;;;;;;4984049;28;20499;-86
2022/08/16 09:17:04;;;;;;;19.42;17.50;;;24.70;99.90;;;;;;4979167;28;20092;-87
2022/08/16 09:19:31;;;;;;;21.23;19.02;;;24.70;99.90;;;;;;4983648;28;20038;-87
2022/08/16 09:21:57;;;;;;;20.73;18.63;;;24.90;99.90;;;;;;4985587;28;20043;-87
2022/08/16 09:24:22;;;;;;;20.35;18.33;;;24.90;99.90;;;;;;4973741;28;20443;-88
2022/08/16 09:26:48;;;;;;;21.77;19.58;;;24.90;99.90;;;;;;4987639;28;20046;-87
2022/08/16 09:29:13;;;;;;;21.23;19.05;;;25.00;99.90;;;;;;4989380;28;20038;-87
2022/08/16 09:31:40;;;;;;;19.70;17.73;;;25.00;99.90;;;;;;4994657;28;20051;-87
2022/08/16 09:34:05;;;;;;;16.42;13.05;;;25.20;99.90;;;;;;4972180;28;20062;-86
2022/08/16 09:36:31;;;;;;;15.45;11.95;;;25.10;99.90;;;;;;4976506;28;20048;-89
2022/08/16 09:38:57;;;;;;;13.68;9.07;;;25.20;99.90;;;;;;4985330;28;20127;-88
2022/08/16 09:41:22;;;;;;;11.48;10.27;;;25.30;99.90;;;;;;4964276;28;20042;-86
2022/08/16 09:43:48;;;;;;;13.70;10.30;;;25.30;99.90;;;;;;4974437;28;20039;-89
2022/08/16 09:46:14;;;;;;;13.70;9.98;;;25.30;99.90;;;;;;4989441;28;20047;-88
2022/08/16 09:48:40;;;;;;;12.60;10.63;;;25.40;99.90;;;;;;4992796;28;20089;-88
2022/08/16 09:51:11;;;;;;;11.75;10.23;;;25.30;99.90;;;;;;4991801;28;20069;-88
2022/08/16 09:53:37;;;;;;;12.00;9.02;;;25.40;99.90;;;;;;4973522;28;20046;-89
2022/08/16 09:56:11;;;;;;;11.23;9.48;;;25.30;99.90;;;;;;4981106;28;20046;-91
2022/08/16 09:58:36;;;;;;;11.90;10.27;;;25.40;99.90;;;;;;4979837;28;20129;-91
2022/08/16 10:01:02;;;;;;;11.90;10.07;;;25.40;99.90;;;;;;4989705;28;20570;-89
2022/08/16 10:03:28;;;;;;;10.88;9.05;;;25.50;99.90;;;;;;4989580;28;20046;-87
2022/08/16 10:05:53;;;;;;;11.98;10.10;;;25.50;99.90;;;;;;4981066;28;20062;-87
2022/08/16 10:08:19;;;;;;;16.98;13.38;;;25.50;99.90;;;;;;4989796;28;20042;-88
2022/08/16 10:13:10;;;;;;;17.60;15.57;;;25.60;99.90;;;;;;4984141;28;20522;-89
2022/08/16 10:13:34;;;;;;;15.57;14.05;;;25.60;99.90;;;;;;4979034;28;20065;-90
2022/08/16 10:16:01;;;;;;;12.27;9.40;;;25.70;99.90;;;;;;4990875;28;20049;-88
2022/08/16 10:18:28;;;;;;;10.60;7.85;;;25.80;99.90;;;;;;4988225;28;20078;-86
2022/08/16 10:20:54;;;;;;;10.27;7.50;;;25.80;99.90;;;;;;4970603;28;20038;-88
2022/08/16 10:23:20;;;;;;;12.60;7.90;;;25.90;99.90;;;;;;4980289;28;20038;-89
2022/08/16 10:25:47;;;;;;;9.38;6.63;;;25.90;99.90;;;;;;4982810;28;20054;-89
2022/08/16 10:28:13;;;;;;;9.35;6.88;;;25.90;99.90;;;;;;4974492;28;20043;-90
2022/08/16 10:30:43;;;;;;;11.55;7.90;;;26.00;99.90;;;;;;4988045;28;20053;-89
2022/08/16 10:33:12;;;;;;;10.88;8.07;;;25.90;99.60;;;;;;4969961;28;20113;-90
2022/08/16 10:35:39;;;;;;;10.60;8.13;;;26.00;99.80;;;;;;4965960;28;20089;-92
2022/08/16 10:38:05;;;;;;;12.43;9.02;;;26.00;99.90;;;;;;4970729;28;20050;-87
2022/08/16 10:40:31;;;;;;;9.20;6.78;;;26.10;99.50;;;;;;4989316;28;20498;-86
2022/08/16 10:43:00;;;;;;;11.18;7.70;;;26.00;99.30;;;;;;4990573;28;20038;-87
2022/08/16 10:45:30;;;;;;;9.87;7.87;;;26.10;99.00;;;;;;4987509;28;20497;-87
2022/08/16 10:47:56;;;;;;;10.20;8.15;;;26.20;98.90;;;;;;4989862;28;20038;-86
2022/08/16 10:50:22;;;;;;;11.32;8.43;;;26.30;98.90;;;;;;4991193;28;20048;-87
2022/08/16 10:52:48;;;;;;;12.27;8.60;;;26.30;99.00;;;;;;4990911;28;20042;-87
2022/08/16 10:55:14;;;;;;;10.40;7.85;;;26.40;99.30;;;;;;4987783;28;20069;-88
2022/08/16 10:57:40;;;;;;;10.20;7.35;;;26.50;99.50;;;;;;4983559;28;20130;-89
2022/08/16 11:00:11;;;;;;;10.60;7.80;;;26.50;99.00;;;;;;4971427;28;20423;-88
2022/08/16 11:02:38;;;;;;;9.45;7.00;;;26.60;98.40;;;;;;4969653;28;20042;-89
2022/08/16 11:05:05;;;;;;;13.70;8.30;;;26.70;98.30;;;;;;4970526;28;20059;-88
2022/08/16 11:07:31;;;;;;;10.85;8.52;;;26.70;98.10;;;;;;4981085;28;20041;-88
2022/08/16 11:10:00;;;;;;;10.65;7.28;;;26.70;98.50;;;;;;4990876;28;20117;-90
2022/08/16 11:12:26;;;;;;;12.35;8.05;;;26.80;98.80;;;;;;4984545;28;20097;-89
2022/08/16 11:14:52;;;;;;;9.95;7.50;;;26.90;98.00;;;;;;4971811;28;20046;-87
2022/08/16 11:17:18;;;;;;;11.25;8.10;;;26.90;98.00;;;;;;4987561;28;20038;-89
2022/08/16 11:19:43;;;;;;;11.52;8.00;;;26.90;97.20;;;;;;4987764;28;20384;-89
2022/08/16 11:22:09;;;;;;;10.48;7.40;;;26.90;97.30;;;;;;4989479;28;20461;-90
2022/08/16 11:24:39;;;;;;;10.88;8.40;;;27.00;97.20;;;;;;4990423;28;20072;-89
2022/08/16 11:27:08;;;;;;;9.32;7.10;;;27.00;97.00;;;;;;4988771;28;20223;-89
2022/08/16 11:29:34;;;;;;;14.43;7.60;;;27.10;97.00;;;;;;4989710;28;20050;-89
2022/08/16 11:32:01;;;;;;;8.98;7.13;;;27.10;96.80;;;;;;4987808;28;20049;-88
2022/08/16 11:34:27;;;;;;;12.07;7.93;;;27.20;96.40;;;;;;4988089;28;20407;-88
2022/08/16 11:36:52;;;;;;;9.60;7.53;;;27.20;95.80;;;;;;4986303;28;20070;-88
2022/08/16 11:39:18;;;;;;;10.23;6.93;;;27.20;96.00;;;;;;4989662;28;20092;-88
2022/08/16 11:41:43;;;;;;;10.75;7.80;;;27.30;96.10;;;;;;4989495;28;20129;-87
2022/08/16 11:44:10;;;;;;;10.43;8.02;;;27.30;96.10;;;;;;4989017;28;20042;-88
2022/08/16 11:46:36;;;;;;;10.38;6.80;;;27.40;95.90;;;;;;4985961;28;20050;-85
2022/08/16 11:49:03;;;;;;;10.48;6.60;;;27.40;95.30;;;;;;4953248;28;20121;-88
2022/08/16 11:51:29;;;;;;;9.68;6.80;;;27.50;95.20;;;;;;4978756;28;20070;-85
2022/08/16 11:53:55;;;;;;;10.95;7.30;;;27.50;94.50;;;;;;4988273;28;20073;-87
2022/08/16 11:56:21;;;;;;;10.60;6.78;;;27.40;93.80;;;;;;4990328;28;20053;-87
2022/08/16 11:58:47;;;;;;;10.10;6.80;;;27.40;93.60;;;;;;4971589;28;20050;-89
2022/08/16 12:01:14;;;;;;;10.05;6.45;;;27.50;93.80;;;;;;4972956;28;20061;-87
2022/08/16 12:03:40;;;;;;;8.68;6.10;;;27.40;92.80;;;;;;4988706;28;20428;-87
2022/08/16 12:06:13;;;;;;;9.38;6.30;;;27.40;92.80;;;;;;4988604;28;20046;-86
2022/08/16 12:08:41;;;;;;;10.07;6.28;;;27.50;92.60;;;;;;4991199;28;20038;-87
2022/08/16 12:11:08;;;;;;;11.02;6.50;;;27.50;92.60;;;;;;4990766;28;20117;-87
2022/08/16 12:13:34;;;;;;;8.70;6.25;;;27.50;93.00;;;;;;4989491;28;20050;-88
2022/08/16 12:16:01;;;;;;;8.60;5.63;;;27.60;93.00;;;;;;4990331;28;20383;-87
2022/08/16 12:18:27;;;;;;;9.55;6.60;;;27.60;92.20;;;;;;4989516;28;20059;-86
2022/08/16 12:20:53;;;;;;;9.07;5.45;;;27.70;91.00;;;;;;4988307;28;20065;-87
2022/08/16 12:23:19;;;;;;;7.88;5.25;;;27.80;90.80;;;;;;4985898;28;20488;-88
2022/08/16 12:25:45;;;;;;;8.80;4.97;;;27.80;90.00;;;;;;4989645;28;20053;-89
2022/08/16 12:28:10;;;;;;;7.50;5.18;;;27.80;88.90;;;;;;4988020;28;20287;-85